createdAt,value
2022-07-28T00:01:00.382Z,52.96
2022-07-28T00:03:28.061Z,52.31
2022-07-28T00:05:57.054Z,52.70
2022-07-28T00:08:24.681Z,52.71
2022-07-28T00:10:52.269Z,52.70
2022-07-28T00:13:19.873Z,52.46
2022-07-28T00:15:47.456Z,52.81
2022-07-28T00:18:15.103Z,53.18
2022-07-28T00:20:42.714Z,52.83
2022-07-28T00:23:11.696Z,52.49
2022-07-28T00:25:39.321Z,53.05
2022-07-28T00:28:06.911Z,52.80
2022-07-28T00:30:34.504Z,53.04
2022-07-28T00:33:02.163Z,53.00
2022-07-28T00:35:32.376Z,52.97
2022-07-28T00:38:01.149Z,52.82
2022-07-28T00:40:44.466Z,53.30
2022-07-28T00:43:12.121Z,53.25
2022-07-28T00:45:39.742Z,53.25
2022-07-28T00:48:07.622Z,53.03
2022-07-28T00:50:35.381Z,53.83
2022-07-28T00:53:03.004Z,53.88
2022-07-28T00:55:33.801Z,54.41
2022-07-28T00:58:21.398Z,54.32
2022-07-28T01:00:49.025Z,54.87
2022-07-28T01:03:16.939Z,55.27
2022-07-28T01:05:53.264Z,55.45
2022-07-28T01:08:28.814Z,55.18
2022-07-28T01:11:05.788Z,55.02
2022-07-28T01:13:41.933Z,54.81
2022-07-28T01:16:10.068Z,54.65
2022-07-28T01:18:44.480Z,54.33
2022-07-28T01:21:14.110Z,54.41
2022-07-28T01:24:10.734Z,54.62
2022-07-28T01:26:57.941Z,54.49
2022-07-28T01:29:37.575Z,54.17
2022-07-28T01:32:10.506Z,53.06
2022-07-28T01:34:42.921Z,53.27
2022-07-28T01:37:13.680Z,52.27
2022-07-28T01:39:44.817Z,53.95
2022-07-28T01:42:14.848Z,53.20
2022-07-28T01:44:45.885Z,53.77
2022-07-28T01:47:15.765Z,55.17
2022-07-28T01:49:46.221Z,54.91
2022-07-28T01:52:15.867Z,54.54
2022-07-28T01:54:46.527Z,54.58
2022-07-28T01:57:17.821Z,53.72
2022-07-28T01:59:46.290Z,53.89
2022-07-28T02:02:18.723Z,54.58
2022-07-28T02:04:48.171Z,54.08
2022-07-28T02:07:18.913Z,53.75
2022-07-28T02:09:47.921Z,54.31
2022-07-28T02:12:19.368Z,54.69
2022-07-28T02:14:49.843Z,54.42
2022-07-28T02:17:22.393Z,54.68
2022-07-28T02:19:51.237Z,54.25
2022-07-28T02:22:19.572Z,54.48
2022-07-28T02:24:48.575Z,54.35
2022-07-28T02:27:22.258Z,53.94
2022-07-28T02:29:52.970Z,54.07
2022-07-28T02:32:28.751Z,53.63
2022-07-28T02:35:01.690Z,53.99
2022-07-28T02:37:35.710Z,53.62
2022-07-28T02:40:05.298Z,54.22
2022-07-28T02:42:36.226Z,54.58
2022-07-28T02:45:07.916Z,54.70
2022-07-28T02:47:44.621Z,55.36
2022-07-28T02:50:15.348Z,55.15
2022-07-28T02:52:44.687Z,55.46
2022-07-28T02:55:15.382Z,54.65
2022-07-28T02:57:45.377Z,54.83
2022-07-28T03:00:14.436Z,54.47
2022-07-28T03:02:46.725Z,54.63
2022-07-28T03:05:15.836Z,54.68
2022-07-28T03:07:50.952Z,55.01
2022-07-28T03:10:32.934Z,55.20
2022-07-28T03:13:03.465Z,55.01
2022-07-28T03:15:31.836Z,55.31
2022-07-28T03:18:01.064Z,55.94
2022-07-28T03:20:29.283Z,55.87
2022-07-28T03:22:58.202Z,56.00
2022-07-28T03:25:31.049Z,55.99
2022-07-28T03:28:00.190Z,56.05
2022-07-28T03:30:32.833Z,55.94
2022-07-28T03:33:03.685Z,56.04
2022-07-28T03:35:33.712Z,55.63
2022-07-28T03:38:06.618Z,55.87
2022-07-28T03:40:36.672Z,55.28
2022-07-28T03:43:07.981Z,55.63
2022-07-28T03:45:36.561Z,56.10
2022-07-28T03:48:09.980Z,55.16
2022-07-28T03:50:37.587Z,55.94
2022-07-28T03:53:11.162Z,55.66
2022-07-28T03:55:38.769Z,55.51
2022-07-28T03:58:06.351Z,54.99
2022-07-28T04:00:34.089Z,55.38
2022-07-28T04:03:01.682Z,55.59
2022-07-28T04:05:30.693Z,55.13
2022-07-28T04:07:58.281Z,55.93
2022-07-28T04:10:26.060Z,56.00
2022-07-28T04:12:55.769Z,56.29
2022-07-28T04:15:24.687Z,55.99
2022-07-28T04:17:53.585Z,55.71
2022-07-28T04:20:22.945Z,57.06
2022-07-28T04:22:52.605Z,57.82
2022-07-28T04:25:21.934Z,58.07
2022-07-28T04:27:49.795Z,58.24
2022-07-28T04:30:19.312Z,57.68
2022-07-28T04:32:47.769Z,57.57
2022-07-28T04:35:17.660Z,57.85
2022-07-28T04:37:46.454Z,57.48
2022-07-28T04:40:15.720Z,57.71
2022-07-28T04:42:44.214Z,57.86
2022-07-28T04:45:12.773Z,57.56
2022-07-28T04:47:41.062Z,56.72
2022-07-28T04:50:11.204Z,57.31
2022-07-28T04:52:39.896Z,57.14
2022-07-28T04:55:08.599Z,57.47
2022-07-28T04:57:37.585Z,57.00
2022-07-28T05:00:13.237Z,57.10
2022-07-28T05:02:41.529Z,56.54
2022-07-28T05:05:10.226Z,56.70
2022-07-28T05:07:38.247Z,57.21
2022-07-28T05:10:07.682Z,56.94
2022-07-28T05:12:36.812Z,56.66
2022-07-28T05:15:04.911Z,56.56
2022-07-28T05:17:32.467Z,57.34
2022-07-28T05:20:00.160Z,56.91
2022-07-28T05:22:27.806Z,56.18
2022-07-28T05:24:55.409Z,56.62
2022-07-28T05:27:22.955Z,57.28
2022-07-28T05:29:52.199Z,56.63
2022-07-28T05:32:19.820Z,56.85
2022-07-28T05:34:47.400Z,56.83
2022-07-28T05:37:14.993Z,56.42
2022-07-28T05:39:42.559Z,56.35
2022-07-28T05:42:10.164Z,56.92
2022-07-28T05:44:38.587Z,56.75
2022-07-28T05:47:07.806Z,56.60
2022-07-28T05:49:35.448Z,56.84
2022-07-28T05:52:03.248Z,56.85
2022-07-28T05:54:30.832Z,55.21
2022-07-28T05:56:58.405Z,55.71
2022-07-28T05:59:26.019Z,55.40
2022-07-28T06:01:53.658Z,55.80
2022-07-28T06:04:28.057Z,55.74
2022-07-28T06:06:56.318Z,55.42
2022-07-28T06:09:24.017Z,54.23
2022-07-28T06:11:51.642Z,53.53
2022-07-28T06:14:19.502Z,53.65
2022-07-28T06:16:50.856Z,53.11
2022-07-28T06:19:19.022Z,53.31
2022-07-28T06:21:48.352Z,53.30
2022-07-28T06:24:16.275Z,52.19
2022-07-28T06:26:45.076Z,52.06
2022-07-28T06:29:12.894Z,52.46
2022-07-28T06:31:40.738Z,52.10
2022-07-28T06:34:08.370Z,51.77
2022-07-28T06:36:35.987Z,51.79
2022-07-28T06:39:05.332Z,51.62
2022-07-28T06:41:33.016Z,51.30
2022-07-28T06:44:00.793Z,51.50
2022-07-28T06:46:29.288Z,51.41
2022-07-28T06:48:56.976Z,51.45
2022-07-28T06:51:25.592Z,51.39
2022-07-28T06:53:53.326Z,51.09
2022-07-28T06:56:22.663Z,50.99
2022-07-28T06:58:51.267Z,51.01
2022-07-28T07:01:18.951Z,50.91
2022-07-28T07:03:46.742Z,50.01
2022-07-28T07:06:14.406Z,49.81
2022-07-28T07:08:42.017Z,48.79
2022-07-28T07:11:09.630Z,48.66
2022-07-28T07:13:38.825Z,48.93
2022-07-28T07:16:06.605Z,49.55
2022-07-28T07:18:34.223Z,49.57
2022-07-28T07:21:01.924Z,49.03
2022-07-28T07:23:29.545Z,49.77
2022-07-28T07:25:57.413Z,48.89
2022-07-28T07:28:25.197Z,49.13
2022-07-28T07:30:54.167Z,48.98
2022-07-28T07:33:21.747Z,48.93
2022-07-28T07:35:49.548Z,49.00
2022-07-28T07:38:17.158Z,49.34
2022-07-28T07:40:44.796Z,49.45
2022-07-28T07:43:12.521Z,50.55
2022-07-28T07:45:41.925Z,49.56
2022-07-28T07:48:11.005Z,49.29
2022-07-28T07:50:39.188Z,49.03
2022-07-28T07:53:06.958Z,50.11
2022-07-28T07:55:37.626Z,48.94
2022-07-28T07:58:05.865Z,48.70
2022-07-28T08:00:33.874Z,49.50
2022-07-28T08:03:01.669Z,49.44
2022-07-28T08:05:35.688Z,48.76
2022-07-28T08:08:05.719Z,49.37
2022-07-28T08:10:33.711Z,48.42
2022-07-28T08:13:01.864Z,47.48
2022-07-28T08:15:29.682Z,47.43
2022-07-28T08:17:57.671Z,48.15
2022-07-28T08:20:25.287Z,48.10
2022-07-28T08:22:56.156Z,47.34
2022-07-28T08:25:24.660Z,47.62
2022-07-28T08:27:52.553Z,47.42
2022-07-28T08:30:23.029Z,48.01
2022-07-28T08:32:56.925Z,47.98
2022-07-28T08:35:34.719Z,48.27
2022-07-28T08:38:06.192Z,47.64
2022-07-28T08:40:35.555Z,47.39
2022-07-28T08:43:10.320Z,47.39
2022-07-28T08:45:40.366Z,47.75
2022-07-28T08:48:12.076Z,47.26
2022-07-28T08:50:40.080Z,47.05
2022-07-28T08:53:09.488Z,46.62
2022-07-28T08:55:37.792Z,46.89
2022-07-28T08:58:05.976Z,46.91
2022-07-28T09:00:33.964Z,45.71
2022-07-28T09:03:04.469Z,45.99
2022-07-28T09:05:33.086Z,46.14
2022-07-28T09:08:01.064Z,46.24
2022-07-28T09:10:30.250Z,45.90
2022-07-28T09:12:57.909Z,45.51
2022-07-28T09:15:25.521Z,46.08
2022-07-28T09:17:53.136Z,46.14
2022-07-28T09:20:21.181Z,44.88
2022-07-28T09:22:57.759Z,44.64
2022-07-28T09:25:26.227Z,44.66
2022-07-28T09:27:55.895Z,44.29
2022-07-28T09:30:31.292Z,45.18
2022-07-28T09:33:42.428Z,44.46
2022-07-28T09:36:04.294Z,44.30
2022-07-28T09:38:41.780Z,44.79
2022-07-28T09:41:09.468Z,44.96
2022-07-28T09:43:40.072Z,44.15
2022-07-28T09:46:10.043Z,43.76
2022-07-28T09:48:51.164Z,43.60
2022-07-28T09:51:20.368Z,42.54
2022-07-28T09:53:48.047Z,42.22
2022-07-28T09:56:15.801Z,42.83
2022-07-28T09:58:54.362Z,43.17
2022-07-28T10:01:22.705Z,41.72
2022-07-28T10:03:55.801Z,41.65
2022-07-28T10:06:28.900Z,41.42
2022-07-28T10:08:58.201Z,41.39
2022-07-28T10:11:27.766Z,41.21
2022-07-28T10:14:02.914Z,41.31
2022-07-28T10:16:33.641Z,41.08
2022-07-28T10:19:03.317Z,41.25
2022-07-28T10:21:34.536Z,40.42
2022-07-28T10:24:06.935Z,39.81
2022-07-28T10:26:39.614Z,38.87
2022-07-28T10:29:09.383Z,39.29
2022-07-28T10:31:46.641Z,38.55
2022-07-28T10:34:24.668Z,38.67
2022-07-28T10:36:55.399Z,38.07
2022-07-28T10:39:24.850Z,37.56
2022-07-28T10:41:53.504Z,38.42
2022-07-28T10:44:23.111Z,37.94
2022-07-28T10:46:51.526Z,37.27
2022-07-28T10:49:20.081Z,37.43
2022-07-28T10:52:02.402Z,37.59
2022-07-28T10:54:38.081Z,37.01
2022-07-28T10:57:13.035Z,37.21
2022-07-28T11:00:13.188Z,36.81
2022-07-28T11:02:50.175Z,37.04
2022-07-28T11:05:33.344Z,36.34
2022-07-28T11:08:02.448Z,36.08
2022-07-28T11:10:31.381Z,36.96
2022-07-28T11:13:00.611Z,35.58
2022-07-28T11:15:35.076Z,36.13
2022-07-28T11:18:06.829Z,35.30
2022-07-28T11:21:08.561Z,35.93
2022-07-28T11:23:58.366Z,35.43
2022-07-28T11:26:37.352Z,35.33
2022-07-28T11:29:22.066Z,34.94
2022-07-28T11:32:05.391Z,34.41
2022-07-28T11:34:47.730Z,34.91
2022-07-28T11:37:15.546Z,34.99
2022-07-28T11:39:44.252Z,34.08
2022-07-28T11:42:26.686Z,33.62
2022-07-28T11:44:55.327Z,33.75
2022-07-28T11:47:25.680Z,33.33
2022-07-28T11:50:13.035Z,32.50
2022-07-28T11:52:41.484Z,32.35
2022-07-28T11:55:09.334Z,31.98
2022-07-28T11:57:41.218Z,31.55
2022-07-28T12:00:10.139Z,31.71
2022-07-28T12:02:41.718Z,30.62
2022-07-28T12:05:12.982Z,30.90
2022-07-28T12:07:44.138Z,30.72
2022-07-28T12:13:27.499Z,30.02
2022-07-28T12:15:55.259Z,29.17
2022-07-28T12:18:24.884Z,28.59
2022-07-28T12:20:54.505Z,28.59
2022-07-28T12:23:45.445Z,27.63
2022-07-28T12:26:14.261Z,27.34
2022-07-28T12:28:51.270Z,26.32
2022-07-28T12:31:18.934Z,26.51
2022-07-28T12:33:53.615Z,26.17
2022-07-28T12:36:24.051Z,26.58
2022-07-28T12:38:52.285Z,26.39
2022-07-28T12:41:20.516Z,25.87
2022-07-28T12:43:52.222Z,25.93
2022-07-28T12:46:25.141Z,25.84
2022-07-28T12:48:58.797Z,26.08
2022-07-28T12:51:37.105Z,26.72
2022-07-28T12:54:06.528Z,26.52
2022-07-28T12:56:45.544Z,27.28
2022-07-28T12:59:14.073Z,27.09
2022-07-28T13:01:49.750Z,27.41
2022-07-28T13:04:37.729Z,27.24
2022-07-28T13:07:09.549Z,27.26
2022-07-28T13:09:39.550Z,26.36
2022-07-28T13:12:16.293Z,26.25
2022-07-28T13:14:45.281Z,27.58
2022-07-28T13:17:13.554Z,27.83
2022-07-28T13:19:43.472Z,27.58
2022-07-28T13:22:11.080Z,27.40
2022-07-28T13:24:38.729Z,27.56
2022-07-28T13:27:07.129Z,27.57
2022-07-28T13:29:35.984Z,28.61
2022-07-28T13:32:03.775Z,28.07
2022-07-28T13:34:31.545Z,28.00
2022-07-28T13:37:00.793Z,28.75
2022-07-28T13:39:28.438Z,28.48
2022-07-28T13:41:59.110Z,28.61
2022-07-28T13:44:27.691Z,28.33
2022-07-28T13:46:55.751Z,27.39
2022-07-28T13:49:24.115Z,26.73
2022-07-28T13:51:52.087Z,25.76
2022-07-28T13:54:21.401Z,25.11
2022-07-28T13:57:07.288Z,25.46
2022-07-28T13:59:36.293Z,27.00
2022-07-28T14:02:06.246Z,27.23
2022-07-28T14:04:46.169Z,27.69
2022-07-28T14:07:20.940Z,27.25
2022-07-28T14:09:51.333Z,27.95
2022-07-28T14:12:19.110Z,28.34
2022-07-28T14:14:48.382Z,27.90
2022-07-28T14:17:40.128Z,27.20
2022-07-28T14:20:04.969Z,24.76
2022-07-28T14:22:32.697Z,24.50
2022-07-28T14:25:02.964Z,23.12
2022-07-28T14:27:30.603Z,20.80
2022-07-28T14:29:58.249Z,20.64
2022-07-28T14:32:25.872Z,18.68
2022-07-28T14:34:53.581Z,17.77
2022-07-28T14:37:22.433Z,17.90
2022-07-28T14:39:50.146Z,17.20
2022-07-28T14:42:19.099Z,18.21
2022-07-28T14:44:46.761Z,17.95
2022-07-28T14:47:15.244Z,18.89
2022-07-28T14:49:57.451Z,19.92
2022-07-28T14:52:26.308Z,20.20
2022-07-28T14:54:54.018Z,21.47
2022-07-28T14:57:48.020Z,20.16
2022-07-28T15:00:13.822Z,19.36
2022-07-28T15:02:42.309Z,18.69
2022-07-28T15:05:13.545Z,18.80
2022-07-28T15:07:42.225Z,18.06
2022-07-28T15:10:11.200Z,17.22
2022-07-28T15:12:40.277Z,17.18
2022-07-28T15:15:09.161Z,16.90
2022-07-28T15:17:37.486Z,19.37
2022-07-28T15:20:06.729Z,19.41
2022-07-28T15:22:34.711Z,19.72
2022-07-28T15:25:03.916Z,20.82
2022-07-28T15:27:33.801Z,21.44
2022-07-28T15:30:03.470Z,22.13
2022-07-28T15:32:31.672Z,22.38
2022-07-28T15:34:59.643Z,21.66
2022-07-28T15:37:27.830Z,22.94
2022-07-28T15:39:55.551Z,22.58
2022-07-28T15:42:23.176Z,22.86
2022-07-28T15:44:52.669Z,23.48
2022-07-28T15:47:21.640Z,23.71
2022-07-28T15:49:49.349Z,22.06
2022-07-28T15:52:16.969Z,20.12
2022-07-28T15:54:44.608Z,19.75
2022-07-28T15:57:13.805Z,19.79
2022-07-28T15:59:49.244Z,19.95
2022-07-28T16:02:18.343Z,20.77
2022-07-28T16:04:51.240Z,21.33
2022-07-28T16:07:23.350Z,21.33
2022-07-28T16:09:52.271Z,22.08
2022-07-28T16:12:21.736Z,23.08
2022-07-28T16:14:49.629Z,24.51
2022-07-28T16:17:18.235Z,25.06
2022-07-28T16:19:49.353Z,24.94
2022-07-28T16:22:18.079Z,23.52
2022-07-28T16:24:45.772Z,23.81
2022-07-28T16:27:14.572Z,23.15
2022-07-28T16:29:42.276Z,23.53
2022-07-28T16:32:09.988Z,22.32
2022-07-28T16:34:38.126Z,22.47
2022-07-28T16:37:07.290Z,21.94
2022-07-28T16:39:35.297Z,21.12
2022-07-28T16:42:03.247Z,20.74
2022-07-28T16:44:31.228Z,20.40
2022-07-28T16:46:59.374Z,20.38
2022-07-28T16:49:27.135Z,19.84
2022-07-28T16:51:55.398Z,19.06
2022-07-28T16:54:25.261Z,18.29
2022-07-28T16:56:55.278Z,18.18
2022-07-28T16:59:22.996Z,18.18
2022-07-28T17:01:52.079Z,18.52
2022-07-28T17:04:21.132Z,19.75
2022-07-28T17:06:48.941Z,20.08
2022-07-28T17:09:17.005Z,19.52
2022-07-28T17:11:46.036Z,19.24
2022-07-28T17:14:13.857Z,18.83
2022-07-28T17:16:41.689Z,17.84
2022-07-28T17:19:09.351Z,18.39
2022-07-28T17:21:37.328Z,17.97
2022-07-28T17:24:05.589Z,16.64
2022-07-28T17:29:23.449Z,16.20
2022-07-28T17:31:51.596Z,16.13
2022-07-28T17:34:22.009Z,17.27
2022-07-28T17:36:50.399Z,17.38
2022-07-28T17:39:18.157Z,18.93
2022-07-28T17:41:45.816Z,19.55
2022-07-28T17:44:13.730Z,19.04
2022-07-28T17:46:43.017Z,19.82
2022-07-28T17:49:10.859Z,20.89
2022-07-28T17:51:38.453Z,21.73
2022-07-28T17:54:06.486Z,21.87
2022-07-28T17:56:36.926Z,22.77
2022-07-28T17:59:05.967Z,22.67
2022-07-28T18:01:33.620Z,23.49
2022-07-28T18:04:02.671Z,23.13
2022-07-28T18:06:32.184Z,23.75
2022-07-28T18:09:06.323Z,23.80
2022-07-28T18:11:37.591Z,23.63
2022-07-28T18:14:24.315Z,24.10
2022-07-28T18:16:52.109Z,24.51
2022-07-28T18:19:21.234Z,25.45
2022-07-28T18:21:49.451Z,26.62
2022-07-28T18:24:17.929Z,27.02
2022-07-28T18:26:46.086Z,27.55
2022-07-28T18:29:14.490Z,28.08
2022-07-28T18:31:46.590Z,28.26
2022-07-28T18:34:15.624Z,29.20
2022-07-28T18:36:45.799Z,29.65
2022-07-28T18:39:13.621Z,30.36
2022-07-28T18:41:46.653Z,31.28
2022-07-28T18:44:16.066Z,31.40
2022-07-28T18:46:44.312Z,31.78
2022-07-28T18:49:12.190Z,31.64
2022-07-28T18:51:44.990Z,33.06
2022-07-28T18:54:20.018Z,33.21
2022-07-28T18:56:49.721Z,33.09
2022-07-28T18:59:17.556Z,32.53
2022-07-28T19:01:45.388Z,33.32
2022-07-28T19:04:13.861Z,33.65
2022-07-28T19:06:43.072Z,33.87
2022-07-28T19:09:10.856Z,35.10
2022-07-28T19:11:45.381Z,33.96
2022-07-28T19:14:14.153Z,34.86
2022-07-28T19:16:41.945Z,34.88
2022-07-28T19:19:09.921Z,37.37
2022-07-28T19:21:37.641Z,36.43
2022-07-28T19:24:10.995Z,36.29
2022-07-28T19:26:40.508Z,35.76
2022-07-28T19:29:08.877Z,35.82
2022-07-28T19:31:37.092Z,35.91
2022-07-28T19:34:05.503Z,36.97
2022-07-28T19:36:33.236Z,37.73
2022-07-28T19:39:00.991Z,37.32
2022-07-28T19:41:31.211Z,37.19
2022-07-28T19:44:00.798Z,37.80
2022-07-28T19:46:28.641Z,40.18
2022-07-28T19:48:56.692Z,39.47
2022-07-28T19:51:24.907Z,41.48
2022-07-28T19:53:52.647Z,41.06
2022-07-28T19:56:20.279Z,41.40
2022-07-28T19:58:48.027Z,42.06
2022-07-28T20:01:18.005Z,43.00
2022-07-28T20:04:01.223Z,42.91
2022-07-28T20:06:30.981Z,43.20
2022-07-28T20:08:59.648Z,44.32
2022-07-28T20:11:27.558Z,44.27
2022-07-28T20:13:55.279Z,45.38
2022-07-28T20:16:24.622Z,44.61
2022-07-28T20:18:52.625Z,44.93
2022-07-28T20:21:21.397Z,45.89
2022-07-28T20:23:49.419Z,46.45
2022-07-28T20:26:18.542Z,47.12
2022-07-28T20:28:52.087Z,48.08
2022-07-28T20:31:21.073Z,48.25
2022-07-28T20:33:50.382Z,47.31
2022-07-28T20:36:18.065Z,46.72
2022-07-28T20:38:46.121Z,46.75
2022-07-28T20:41:14.056Z,47.05
2022-07-28T20:43:41.702Z,47.49
2022-07-28T20:46:09.627Z,47.57
2022-07-28T20:48:37.375Z,47.79
2022-07-28T20:51:06.471Z,47.38
2022-07-28T20:53:34.572Z,48.58
2022-07-28T20:56:02.187Z,49.34
2022-07-28T20:58:30.119Z,48.65
2022-07-28T21:00:57.935Z,48.14
2022-07-28T21:03:25.951Z,47.31
2022-07-28T21:05:53.919Z,46.39
2022-07-28T21:08:24.295Z,46.70
2022-07-28T21:10:52.116Z,46.54
2022-07-28T21:13:19.929Z,47.04
2022-07-28T21:15:48.345Z,47.02
2022-07-28T21:18:17.383Z,47.38
2022-07-28T21:20:45.357Z,47.46
2022-07-28T21:23:13.237Z,47.65
2022-07-28T21:25:45.152Z,48.56
2022-07-28T21:28:31.082Z,48.54
2022-07-28T21:30:58.754Z,49.24
2022-07-28T21:33:26.508Z,50.00
2022-07-28T21:35:54.265Z,50.04
2022-07-28T21:38:23.021Z,50.57
2022-07-28T21:40:52.129Z,51.44
2022-07-28T21:43:20.184Z,51.09
2022-07-28T21:45:48.809Z,51.97
2022-07-28T21:48:19.228Z,53.21
2022-07-28T21:50:47.277Z,53.91
2022-07-28T21:53:17.321Z,53.85
2022-07-28T21:58:14.450Z,54.73
2022-07-28T22:00:42.439Z,55.06
2022-07-28T22:03:10.134Z,55.69
2022-07-28T22:05:38.336Z,55.69
2022-07-28T22:08:06.109Z,55.99
2022-07-28T22:10:33.709Z,56.15
2022-07-28T22:13:01.335Z,56.91
2022-07-28T22:15:30.426Z,57.17
2022-07-28T22:17:58.020Z,57.46
2022-07-28T22:20:25.814Z,57.49
2022-07-28T22:22:55.052Z,58.12
2022-07-28T22:25:22.856Z,58.83
2022-07-28T22:27:50.496Z,59.02
2022-07-28T22:30:18.349Z,59.38
2022-07-28T22:32:47.396Z,59.56
2022-07-28T22:35:15.076Z,59.33
2022-07-28T22:37:42.685Z,60.07
2022-07-28T22:40:11.842Z,59.97
2022-07-28T22:42:39.562Z,60.06
2022-07-28T22:45:08.179Z,60.97
2022-07-28T22:47:35.784Z,61.18
2022-07-28T22:50:05.644Z,61.29
2022-07-28T22:52:33.596Z,61.67
2022-07-28T22:55:01.238Z,61.69
2022-07-28T22:57:28.909Z,61.76
2022-07-28T22:59:57.061Z,61.68
2022-07-28T23:02:25.744Z,61.46
2022-07-28T23:04:53.993Z,61.59
2022-07-28T23:07:35.263Z,61.86
2022-07-28T23:10:12.003Z,62.30
2022-07-28T23:12:39.632Z,62.52
2022-07-28T23:15:08.176Z,62.73
2022-07-28T23:17:35.790Z,63.08
2022-07-28T23:20:03.641Z,63.43
2022-07-28T23:22:32.553Z,62.96
2022-07-28T23:25:00.865Z,63.42
2022-07-28T23:27:28.571Z,63.54
2022-07-28T23:29:56.505Z,63.09
2022-07-28T23:32:24.133Z,63.50
2022-07-28T23:34:51.744Z,63.40
2022-07-28T23:37:19.370Z,63.42
2022-07-28T23:39:48.529Z,63.72
2022-07-28T23:42:16.646Z,63.67
2022-07-28T23:44:44.294Z,63.73
2022-07-28T23:47:12.013Z,64.02
2022-07-28T23:49:39.692Z,64.41
2022-07-28T23:52:07.320Z,64.39
2022-07-28T23:54:34.930Z,64.74
2022-07-28T23:57:04.001Z,64.71
2022-07-28T23:59:32.125Z,64.82
